This is the latest recevied weather packets stored in our database for station/object YO6SAY-10. If no packets are shown the sender has not sent any weather packets the latest 10 day(s).
| Time | Temp. | Humidity | Pressure | Rain* | Wind** | Luminosity | Snow |
|---|---|---|---|---|---|---|---|
| 1777624173 | 9.44° C | 43% | 957.4 hPa | - | - | - | - |
| 1777623272 | 10° C | 45% | 957.4 hPa | - | - | - | - |
| 1777622372 | 10° C | 48% | 957.4 hPa | - | - | - | - |
| 1777621472 | 10.56° C | 52% | 957.5 hPa | - | - | - | - |
| 1777620572 | 11.11° C | 53% | 957.4 hPa | - | - | - | - |
| 1777619671 | 10.56° C | 50% | 957.5 hPa | - | - | - | - |
| 1777618771 | 10° C | 51% | 957.5 hPa | - | - | - | - |
| 1777617871 | 10° C | 51% | 957.3 hPa | - | - | - | - |
| 1777616971 | 10° C | 51% | 957.4 hPa | - | - | - | - |
| 1777616071 | 10° C | 51% | 957.5 hPa | - | - | - | - |
| 1777615171 | 10° C | 51% | 957.6 hPa | - | - | - | - |
| 1777614270 | 9.44° C | 51% | 957.6 hPa | - | - | - | - |
| 1777613370 | 9.44° C | 52% | 957.6 hPa | - | - | - | - |
| 1777612470 | 8.89° C | 52% | 957.5 hPa | - | - | - | - |
| 1777611570 | 8.89° C | 53% | 957.6 hPa | - | - | - | - |
| 1777610670 | 8.33° C | 53% | 957.5 hPa | - | - | - | - |
| 1777609768 | 8.33° C | 53% | 957.4 hPa | - | - | - | - |
| 1777608868 | 7.78° C | 53% | 957.4 hPa | - | - | - | - |
| 1777607967 | 7.78° C | 54% | 957.3 hPa | - | - | - | - |
| 1777607067 | 7.78° C | 54% | 957.3 hPa | - | - | - | - |
| 1777606167 | 7.78° C | 54% | 957.3 hPa | - | - | - | - |
| 1777605266 | 7.78° C | 54% | 957.3 hPa | - | - | - | - |
| 1777604366 | 7.78° C | 55% | 957.2 hPa | - | - | - | - |
| 1777603465 | 7.78° C | 54% | 957.3 hPa | - | - | - | - |
| 1777602565 | 7.78° C | 54% | 957.2 hPa | - | - | - | - |
* Rain since midnight (hover to see other rain measurements)
** Current wind speed in m/s (hover to see current wind gust speed)